Ostend, Belgium

9:03 PM CEST on September 02, 2014 (GMT +0200)
Bredene Dorp | Change Station
CLOSE
Current Station
Personal Weather Station
Location: Bredene, FLANDERS
Elevation: 3 ft
Nearby Weather Stations

Elev 3 ft 51.24 °N, 2.97 °E | Updated 1 minute ago

Scattered Clouds
Scattered Clouds
62.6 °F
Feels Like 62.6 °F
N
1.0
Wind Variable Wind from East
Gusts 3.0 mph

Today
High -- | Low -- °F
--% Chance of Precip.
Yesterday
High -- | Low -- °F
Precip. -- in
7:02 AM 8:32 PM
First Quarter, 54% visible
Pressure 30.21 in
Visibility 6.2 miles
Clouds Scattered Clouds 5000 ft
Dew Point 58 °F
Humidity 84%
Rainfall 0.00 in
Snow Depth Not available.
UV 0 out of 12
Pollen Not available.
Air Quality Not available.
Flu Activity Not available.
METAR EBFN 021855Z 04006KT 9999 SCT050 16/14 Q1023 BLU BLU

More Conditions Fewer Conditions

Pressure 30.21 in
Visibility 6.2 miles
Clouds Scattered Clouds 5000 ft
Dew Point 58 °F
Humidity 84%
Rainfall 0.00 in
Snow Depth Not available.
UV 0 out of 12
Pollen Not available.
Air Quality Not available.
Flu Activity Not available.
METAR EBFN 021855Z 04006KT 9999 SCT050 16/14 Q1023 BLU BLU

More Conditions Fewer Conditions

10-Day Weather Forecast

Almanac

Astronomy

Sep. 02, 2014 Rise Set
Actual Time 7:02 AM CEST 8:32 PM CEST
Civil Twilight 6:28 AM CEST 9:06 PM CEST
Nautical Twilight 5:45 AM CEST 9:49 PM CEST
Astronomical Twilight 4:59 AM CEST 10:35 PM CEST
Moon 3:20 PM CEST No Moon Set
Length of Visible Light 14h 38m
Length of Day
13h 29m
Tomorrow will be 3m 47s shorter.
First Quarter, 54% of the Moon is Illuminated
Today
First Quarter
Sep 8
Full
Sep 15
Last Quarter
Sep 24
New
Oct 1
First Quarter

Today's Extremes

Country Highs Country Lows

Community

WunderPhotos

Upload Photos

1,749,745 photos uploaded!

WunderBlogs® & News

By Dr. Jeff Masters
Director of Meteorology, Weather Underground
By Kari Strenfel
Meteorologist, Weather Underground
By Christopher C. Burt
Weather Historian, Weather Underground
September 2, 2014
September 2, 2014
September 2, 2014

Nearby

Snow Depth

Not available.

Earthquake Activity

City Distance Mag. Time & Date
No recent earthquake activity has been reported nearby.
Minimum magnitude displayed is 2.5.

Coastal Water Temperatures

Place Temperature
No Stations Reporting

Nearby Weather Stations